sensor_id;sensor_type;location;lat;lon;timestamp;P1;durP1;ratioP1;P2;durP2;ratioP2
49978;SDS011;35869;50.990;6.962;2023-11-21T00:01:25;14.23;;;9.05;;
49978;SDS011;35869;50.990;6.962;2023-11-21T00:06:25;12.45;;;10.45;;
49978;SDS011;35869;50.990;6.962;2023-11-21T00:11:25;15.73;;;10.30;;
49978;SDS011;35869;50.990;6.962;2023-11-21T00:16:26;17.05;;;11.73;;
49978;SDS011;35869;50.990;6.962;2023-11-21T00:21:26;13.45;;;10.35;;
49978;SDS011;35869;50.990;6.962;2023-11-21T00:26:26;17.27;;;11.32;;
49978;SDS011;35869;50.990;6.962;2023-11-21T00:31:27;16.50;;;11.70;;
49978;SDS011;35869;50.990;6.962;2023-11-21T00:36:27;18.92;;;11.68;;
49978;SDS011;35869;50.990;6.962;2023-11-21T00:41:27;15.10;;;11.10;;
49978;SDS011;35869;50.990;6.962;2023-11-21T00:46:27;15.90;;;11.05;;
49978;SDS011;35869;50.990;6.962;2023-11-21T00:51:28;17.45;;;13.07;;
49978;SDS011;35869;50.990;6.962;2023-11-21T00:56:28;17.40;;;13.32;;
49978;SDS011;35869;50.990;6.962;2023-11-21T01:01:29;20.25;;;12.30;;
49978;SDS011;35869;50.990;6.962;2023-11-21T01:06:29;25.33;;;12.15;;
49978;SDS011;35869;50.990;6.962;2023-11-21T01:11:29;16.20;;;11.82;;
49978;SDS011;35869;50.990;6.962;2023-11-21T01:16:29;14.63;;;12.05;;
49978;SDS011;35869;50.990;6.962;2023-11-21T01:21:30;16.40;;;11.67;;
49978;SDS011;35869;50.990;6.962;2023-11-21T01:26:30;18.10;;;12.55;;
49978;SDS011;35869;50.990;6.962;2023-11-21T01:31:30;20.90;;;12.75;;
49978;SDS011;35869;50.990;6.962;2023-11-21T01:36:35;21.53;;;13.27;;
49978;SDS011;35869;50.990;6.962;2023-11-21T01:41:35;21.10;;;12.20;;
49978;SDS011;35869;50.990;6.962;2023-11-21T01:46:35;18.03;;;11.27;;
49978;SDS011;35869;50.990;6.962;2023-11-21T01:51:40;20.67;;;12.25;;
49978;SDS011;35869;50.990;6.962;2023-11-21T01:56:41;18.33;;;12.23;;
49978;SDS011;35869;50.990;6.962;2023-11-21T02:01:45;22.48;;;12.95;;
49978;SDS011;35869;50.990;6.962;2023-11-21T02:06:45;21.70;;;12.57;;
49978;SDS011;35869;50.990;6.962;2023-11-21T02:11:46;19.47;;;13.57;;
49978;SDS011;35869;50.990;6.962;2023-11-21T02:16:46;21.85;;;14.60;;
49978;SDS011;35869;50.990;6.962;2023-11-21T02:21:46;23.57;;;13.97;;
49978;SDS011;35869;50.990;6.962;2023-11-21T02:26:49;21.73;;;15.05;;
49978;SDS011;35869;50.990;6.962;2023-11-21T02:31:57;23.90;;;14.65;;
49978;SDS011;35869;50.990;6.962;2023-11-21T02:36:58;17.95;;;13.50;;
49978;SDS011;35869;50.990;6.962;2023-11-21T02:41:58;20.57;;;14.00;;
49978;SDS011;35869;50.990;6.962;2023-11-21T02:46:58;22.33;;;14.18;;
49978;SDS011;35869;50.990;6.962;2023-11-21T02:51:59;23.42;;;14.63;;
49978;SDS011;35869;50.990;6.962;2023-11-21T02:56:59;23.20;;;15.67;;
49978;SDS011;35869;50.990;6.962;2023-11-21T03:01:59;21.48;;;14.00;;
49978;SDS011;35869;50.990;6.962;2023-11-21T03:07:00;20.83;;;13.40;;
49978;SDS011;35869;50.990;6.962;2023-11-21T03:12:00;25.90;;;15.47;;
49978;SDS011;35869;50.990;6.962;2023-11-21T03:17:00;19.77;;;14.13;;
49978;SDS011;35869;50.990;6.962;2023-11-21T03:22:01;18.95;;;12.43;;
49978;SDS011;35869;50.990;6.962;2023-11-21T03:27:01;21.40;;;13.03;;
49978;SDS011;35869;50.990;6.962;2023-11-21T03:32:01;21.70;;;13.93;;
49978;SDS011;35869;50.990;6.962;2023-11-21T03:37:01;21.58;;;12.75;;
49978;SDS011;35869;50.990;6.962;2023-11-21T03:42:02;19.58;;;13.45;;
49978;SDS011;35869;50.990;6.962;2023-11-21T03:47:02;23.83;;;14.63;;
49978;SDS011;35869;50.990;6.962;2023-11-21T03:52:03;21.13;;;13.53;;
49978;SDS011;35869;50.990;6.962;2023-11-21T03:57:03;19.73;;;14.68;;
49978;SDS011;35869;50.990;6.962;2023-11-21T04:02:04;23.00;;;14.65;;
49978;SDS011;35869;50.990;6.962;2023-11-21T04:07:04;25.65;;;15.15;;
49978;SDS011;35869;50.990;6.962;2023-11-21T04:12:05;28.38;;;16.45;;
49978;SDS011;35869;50.990;6.962;2023-11-21T04:17:05;28.55;;;17.60;;
49978;SDS011;35869;50.990;6.962;2023-11-21T04:22:06;22.97;;;15.50;;
49978;SDS011;35869;50.990;6.962;2023-11-21T04:27:06;26.00;;;16.17;;
49978;SDS011;35869;50.990;6.962;2023-11-21T04:32:06;33.37;;;17.23;;
49978;SDS011;35869;50.990;6.962;2023-11-21T04:37:07;27.53;;;16.73;;
49978;SDS011;35869;50.990;6.962;2023-11-21T04:42:07;28.63;;;17.17;;
49978;SDS011;35869;50.990;6.962;2023-11-21T04:47:10;28.27;;;18.90;;
49978;SDS011;35869;50.990;6.962;2023-11-21T04:52:10;30.88;;;17.67;;
49978;SDS011;35869;50.990;6.962;2023-11-21T04:57:11;29.95;;;18.42;;
49978;SDS011;35869;50.990;6.962;2023-11-21T05:02:11;34.80;;;18.97;;
49978;SDS011;35869;50.990;6.962;2023-11-21T05:07:11;34.20;;;20.02;;
49978;SDS011;35869;50.990;6.962;2023-11-21T05:12:12;28.20;;;19.40;;
49978;SDS011;35869;50.990;6.962;2023-11-21T05:17:12;34.03;;;19.50;;
49978;SDS011;35869;50.990;6.962;2023-11-21T05:22:13;33.65;;;20.77;;
49978;SDS011;35869;50.990;6.962;2023-11-21T05:27:15;33.13;;;21.33;;
49978;SDS011;35869;50.990;6.962;2023-11-21T05:32:15;31.90;;;20.70;;
49978;SDS011;35869;50.990;6.962;2023-11-21T05:37:15;37.55;;;20.58;;
49978;SDS011;35869;50.990;6.962;2023-11-21T05:42:16;34.30;;;19.73;;
49978;SDS011;35869;50.990;6.962;2023-11-21T05:47:16;36.33;;;20.40;;
49978;SDS011;35869;50.990;6.962;2023-11-21T05:52:17;31.60;;;21.17;;
49978;SDS011;35869;50.990;6.962;2023-11-21T05:57:19;43.05;;;21.77;;
49978;SDS011;35869;50.990;6.962;2023-11-21T06:02:19;33.17;;;21.80;;
49978;SDS011;35869;50.990;6.962;2023-11-21T06:07:20;37.50;;;23.17;;
49978;SDS011;35869;50.990;6.962;2023-11-21T06:12:20;33.75;;;20.38;;
49978;SDS011;35869;50.990;6.962;2023-11-21T06:17:20;28.70;;;19.65;;
49978;SDS011;35869;50.990;6.962;2023-11-21T06:22:21;34.57;;;21.60;;
49978;SDS011;35869;50.990;6.962;2023-11-21T06:27:21;40.22;;;22.98;;
49978;SDS011;35869;50.990;6.962;2023-11-21T06:32:24;27.20;;;19.90;;
49978;SDS011;35869;50.990;6.962;2023-11-21T06:37:26;30.52;;;19.95;;
49978;SDS011;35869;50.990;6.962;2023-11-21T06:42:26;29.63;;;19.58;;
49978;SDS011;35869;50.990;6.962;2023-11-21T06:47:27;33.43;;;21.00;;
49978;SDS011;35869;50.990;6.962;2023-11-21T06:52:27;37.13;;;22.92;;
49978;SDS011;35869;50.990;6.962;2023-11-21T06:57:33;32.37;;;22.10;;
49978;SDS011;35869;50.990;6.962;2023-11-21T07:02:36;32.40;;;20.67;;
49978;SDS011;35869;50.990;6.962;2023-11-21T07:07:44;33.47;;;21.67;;
49978;SDS011;35869;50.990;6.962;2023-11-21T07:12:44;38.90;;;22.10;;
49978;SDS011;35869;50.990;6.962;2023-11-21T07:17:44;38.45;;;23.30;;
49978;SDS011;35869;50.990;6.962;2023-11-21T07:27:57;38.92;;;24.00;;
49978;SDS011;35869;50.990;6.962;2023-11-21T07:33:07;43.10;;;23.55;;
49978;SDS011;35869;50.990;6.962;2023-11-21T07:38:09;32.80;;;22.02;;
49978;SDS011;35869;50.990;6.962;2023-11-21T07:43:16;39.28;;;22.13;;
49978;SDS011;35869;50.990;6.962;2023-11-21T07:48:19;47.10;;;26.55;;
49978;SDS011;35869;50.990;6.962;2023-11-21T07:53:32;39.03;;;24.33;;
49978;SDS011;35869;50.990;6.962;2023-11-21T07:58:35;40.75;;;24.95;;
49978;SDS011;35869;50.990;6.962;2023-11-21T08:03:36;45.50;;;25.45;;
49978;SDS011;35869;50.990;6.962;2023-11-21T08:08:36;45.65;;;25.27;;
49978;SDS011;35869;50.990;6.962;2023-11-21T08:13:36;46.60;;;25.37;;
49978;SDS011;35869;50.990;6.962;2023-11-21T08:18:36;43.80;;;26.48;;
49978;SDS011;35869;50.990;6.962;2023-11-21T08:23:37;54.33;;;26.30;;
49978;SDS011;35869;50.990;6.962;2023-11-21T08:28:37;42.50;;;23.83;;
49978;SDS011;35869;50.990;6.962;2023-11-21T08:33:37;48.40;;;26.40;;
49978;SDS011;35869;50.990;6.962;2023-11-21T08:38:38;43.07;;;24.43;;
49978;SDS011;35869;50.990;6.962;2023-11-21T08:43:40;42.63;;;23.77;;
49978;SDS011;35869;50.990;6.962;2023-11-21T08:48:41;42.13;;;24.87;;
49978;SDS011;35869;50.990;6.962;2023-11-21T08:53:41;42.22;;;25.17;;
49978;SDS011;35869;50.990;6.962;2023-11-21T08:58:45;41.10;;;24.02;;
49978;SDS011;35869;50.990;6.962;2023-11-21T09:03:45;40.78;;;24.48;;
49978;SDS011;35869;50.990;6.962;2023-11-21T09:08:46;46.25;;;26.50;;
49978;SDS011;35869;50.990;6.962;2023-11-21T09:13:46;47.60;;;26.58;;
49978;SDS011;35869;50.990;6.962;2023-11-21T09:18:46;51.22;;;26.88;;
49978;SDS011;35869;50.990;6.962;2023-11-21T09:23:47;48.63;;;27.50;;
49978;SDS011;35869;50.990;6.962;2023-11-21T09:28:48;50.22;;;26.20;;
49978;SDS011;35869;50.990;6.962;2023-11-21T09:33:49;46.95;;;26.38;;
49978;SDS011;35869;50.990;6.962;2023-11-21T09:38:49;54.00;;;26.08;;
49978;SDS011;35869;50.990;6.962;2023-11-21T09:43:50;45.25;;;24.77;;
49978;SDS011;35869;50.990;6.962;2023-11-21T09:48:56;47.13;;;25.60;;
49978;SDS011;35869;50.990;6.962;2023-11-21T09:54:00;45.03;;;26.15;;
49978;SDS011;35869;50.990;6.962;2023-11-21T09:59:03;46.63;;;23.85;;
49978;SDS011;35869;50.990;6.962;2023-11-21T10:04:03;53.70;;;28.20;;
49978;SDS011;35869;50.990;6.962;2023-11-21T10:09:04;53.20;;;27.88;;
49978;SDS011;35869;50.990;6.962;2023-11-21T10:14:05;50.20;;;26.58;;
49978;SDS011;35869;50.990;6.962;2023-11-21T10:19:10;54.97;;;28.77;;
49978;SDS011;35869;50.990;6.962;2023-11-21T10:24:11;47.63;;;27.17;;
49978;SDS011;35869;50.990;6.962;2023-11-21T10:29:11;56.85;;;29.95;;
49978;SDS011;35869;50.990;6.962;2023-11-21T10:34:18;52.05;;;29.50;;
49978;SDS011;35869;50.990;6.962;2023-11-21T10:39:20;46.95;;;26.58;;
49978;SDS011;35869;50.990;6.962;2023-11-21T10:44:20;55.67;;;29.00;;
49978;SDS011;35869;50.990;6.962;2023-11-21T10:49:21;48.93;;;26.53;;
49978;SDS011;35869;50.990;6.962;2023-11-21T10:54:23;54.95;;;27.45;;
49978;SDS011;35869;50.990;6.962;2023-11-21T10:59:28;53.97;;;27.48;;
49978;SDS011;35869;50.990;6.962;2023-11-21T11:04:29;52.63;;;30.02;;
49978;SDS011;35869;50.990;6.962;2023-11-21T11:09:31;48.70;;;25.50;;
49978;SDS011;35869;50.990;6.962;2023-11-21T11:14:34;54.67;;;26.13;;
49978;SDS011;35869;50.990;6.962;2023-11-21T11:19:34;49.20;;;24.33;;
49978;SDS011;35869;50.990;6.962;2023-11-21T11:24:51;51.05;;;27.55;;
49978;SDS011;35869;50.990;6.962;2023-11-21T11:30:28;45.60;;;25.52;;
49978;SDS011;35869;50.990;6.962;2023-11-21T11:35:33;46.00;;;24.15;;
49978;SDS011;35869;50.990;6.962;2023-11-21T11:40:45;40.33;;;23.63;;
49978;SDS011;35869;50.990;6.962;2023-11-21T11:45:53;41.05;;;22.25;;
49978;SDS011;35869;50.990;6.962;2023-11-21T11:51:02;47.72;;;25.25;;
49978;SDS011;35869;50.990;6.962;2023-11-21T11:56:19;44.42;;;24.15;;
49978;SDS011;35869;50.990;6.962;2023-11-21T12:01:22;39.88;;;20.58;;
49978;SDS011;35869;50.990;6.962;2023-11-21T12:06:33;39.30;;;21.05;;
49978;SDS011;35869;50.990;6.962;2023-11-21T12:11:34;34.35;;;18.42;;
49978;SDS011;35869;50.990;6.962;2023-11-21T12:16:46;29.58;;;17.42;;
49978;SDS011;35869;50.990;6.962;2023-11-21T12:21:47;38.95;;;18.67;;
49978;SDS011;35869;50.990;6.962;2023-11-21T12:26:47;35.60;;;20.20;;
49978;SDS011;35869;50.990;6.962;2023-11-21T12:31:48;37.80;;;20.17;;
49978;SDS011;35869;50.990;6.962;2023-11-21T12:41:49;38.60;;;19.58;;
49978;SDS011;35869;50.990;6.962;2023-11-21T12:46:49;40.03;;;20.37;;
49978;SDS011;35869;50.990;6.962;2023-11-21T12:51:50;41.13;;;21.65;;
49978;SDS011;35869;50.990;6.962;2023-11-21T12:56:50;40.63;;;20.10;;
49978;SDS011;35869;50.990;6.962;2023-11-21T13:01:51;36.13;;;20.23;;
49978;SDS011;35869;50.990;6.962;2023-11-21T13:06:51;44.35;;;22.90;;
49978;SDS011;35869;50.990;6.962;2023-11-21T13:11:59;35.50;;;19.02;;
49978;SDS011;35869;50.990;6.962;2023-11-21T13:17:01;32.28;;;18.98;;
49978;SDS011;35869;50.990;6.962;2023-11-21T13:22:01;37.05;;;18.52;;
49978;SDS011;35869;50.990;6.962;2023-11-21T13:27:01;33.72;;;16.20;;
49978;SDS011;35869;50.990;6.962;2023-11-21T13:32:02;32.90;;;18.70;;
49978;SDS011;35869;50.990;6.962;2023-11-21T13:37:02;39.67;;;17.92;;
49978;SDS011;35869;50.990;6.962;2023-11-21T13:47:03;41.43;;;20.53;;
49978;SDS011;35869;50.990;6.962;2023-11-21T13:52:03;43.30;;;20.33;;
49978;SDS011;35869;50.990;6.962;2023-11-21T13:57:11;37.03;;;20.50;;
49978;SDS011;35869;50.990;6.962;2023-11-21T14:02:22;41.60;;;20.80;;
49978;SDS011;35869;50.990;6.962;2023-11-21T14:07:24;43.70;;;21.95;;
49978;SDS011;35869;50.990;6.962;2023-11-21T14:12:25;44.40;;;24.73;;
49978;SDS011;35869;50.990;6.962;2023-11-21T14:17:25;47.55;;;24.50;;
49978;SDS011;35869;50.990;6.962;2023-11-21T14:22:26;51.45;;;26.60;;
49978;SDS011;35869;50.990;6.962;2023-11-21T14:27:33;48.90;;;27.20;;
49978;SDS011;35869;50.990;6.962;2023-11-21T14:32:33;50.78;;;25.27;;
49978;SDS011;35869;50.990;6.962;2023-11-21T14:37:33;50.25;;;25.30;;
49978;SDS011;35869;50.990;6.962;2023-11-21T14:42:33;56.33;;;26.70;;
49978;SDS011;35869;50.990;6.962;2023-11-21T14:47:34;43.20;;;25.73;;
49978;SDS011;35869;50.990;6.962;2023-11-21T14:52:34;49.88;;;25.45;;
49978;SDS011;35869;50.990;6.962;2023-11-21T14:57:34;48.97;;;26.67;;
49978;SDS011;35869;50.990;6.962;2023-11-21T15:02:34;55.47;;;28.73;;
49978;SDS011;35869;50.990;6.962;2023-11-21T15:07:35;58.40;;;30.20;;
49978;SDS011;35869;50.990;6.962;2023-11-21T15:12:35;60.90;;;30.67;;
49978;SDS011;35869;50.990;6.962;2023-11-21T15:17:35;62.47;;;30.10;;
49978;SDS011;35869;50.990;6.962;2023-11-21T15:22:36;66.47;;;32.72;;
49978;SDS011;35869;50.990;6.962;2023-11-21T15:27:36;74.78;;;33.63;;
49978;SDS011;35869;50.990;6.962;2023-11-21T15:32:39;58.53;;;30.58;;
49978;SDS011;35869;50.990;6.962;2023-11-21T15:37:40;56.93;;;28.07;;
49978;SDS011;35869;50.990;6.962;2023-11-21T15:42:46;46.05;;;24.98;;
49978;SDS011;35869;50.990;6.962;2023-11-21T15:47:46;35.47;;;19.00;;
49978;SDS011;35869;50.990;6.962;2023-11-21T15:52:47;30.63;;;18.52;;
49978;SDS011;35869;50.990;6.962;2023-11-21T15:57:47;35.85;;;18.30;;
49978;SDS011;35869;50.990;6.962;2023-11-21T16:02:47;26.63;;;15.35;;
49978;SDS011;35869;50.990;6.962;2023-11-21T16:07:48;23.53;;;13.00;;
49978;SDS011;35869;50.990;6.962;2023-11-21T16:12:48;18.95;;;12.23;;
49978;SDS011;35869;50.990;6.962;2023-11-21T16:17:48;16.43;;;10.37;;
49978;SDS011;35869;50.990;6.962;2023-11-21T16:22:48;14.88;;;10.95;;
49978;SDS011;35869;50.990;6.962;2023-11-21T16:27:49;21.25;;;12.38;;
49978;SDS011;35869;50.990;6.962;2023-11-21T16:32:49;17.90;;;11.70;;
49978;SDS011;35869;50.990;6.962;2023-11-21T16:37:49;22.80;;;13.38;;
49978;SDS011;35869;50.990;6.962;2023-11-21T16:47:56;19.40;;;11.88;;
49978;SDS011;35869;50.990;6.962;2023-11-21T16:52:56;20.73;;;11.47;;
49978;SDS011;35869;50.990;6.962;2023-11-21T16:57:56;16.40;;;10.75;;
49978;SDS011;35869;50.990;6.962;2023-11-21T17:02:57;13.55;;;9.55;;
49978;SDS011;35869;50.990;6.962;2023-11-21T17:08:00;15.85;;;10.52;;
49978;SDS011;35869;50.990;6.962;2023-11-21T17:13:02;13.70;;;9.45;;
49978;SDS011;35869;50.990;6.962;2023-11-21T17:18:03;17.38;;;10.13;;
49978;SDS011;35869;50.990;6.962;2023-11-21T17:23:03;15.03;;;9.07;;
49978;SDS011;35869;50.990;6.962;2023-11-21T17:28:04;32.15;;;10.00;;
49978;SDS011;35869;50.990;6.962;2023-11-21T17:33:04;10.02;;;8.23;;
49978;SDS011;35869;50.990;6.962;2023-11-21T17:38:05;11.57;;;8.80;;
49978;SDS011;35869;50.990;6.962;2023-11-21T17:43:05;12.38;;;8.93;;
49978;SDS011;35869;50.990;6.962;2023-11-21T17:48:05;10.95;;;8.43;;
49978;SDS011;35869;50.990;6.962;2023-11-21T17:53:05;14.00;;;10.13;;
49978;SDS011;35869;50.990;6.962;2023-11-21T18:03:07;9.35;;;7.55;;
49978;SDS011;35869;50.990;6.962;2023-11-21T18:08:07;9.95;;;7.15;;
49978;SDS011;35869;50.990;6.962;2023-11-21T18:13:08;10.27;;;6.05;;
49978;SDS011;35869;50.990;6.962;2023-11-21T18:18:08;9.27;;;5.80;;
49978;SDS011;35869;50.990;6.962;2023-11-21T18:23:08;9.15;;;5.68;;
49978;SDS011;35869;50.990;6.962;2023-11-21T18:28:09;6.25;;;5.22;;
49978;SDS011;35869;50.990;6.962;2023-11-21T18:33:09;6.20;;;4.15;;
49978;SDS011;35869;50.990;6.962;2023-11-21T18:38:09;6.03;;;4.33;;
49978;SDS011;35869;50.990;6.962;2023-11-21T18:43:12;5.60;;;4.35;;
49978;SDS011;35869;50.990;6.962;2023-11-21T18:48:13;5.93;;;3.70;;
49978;SDS011;35869;50.990;6.962;2023-11-21T18:53:13;4.55;;;2.97;;
49978;SDS011;35869;50.990;6.962;2023-11-21T18:58:20;6.97;;;3.83;;
49978;SDS011;35869;50.990;6.962;2023-11-21T19:03:20;4.30;;;3.40;;
49978;SDS011;35869;50.990;6.962;2023-11-21T19:08:21;4.65;;;3.83;;
49978;SDS011;35869;50.990;6.962;2023-11-21T19:13:21;4.43;;;3.63;;
49978;SDS011;35869;50.990;6.962;2023-11-21T19:18:21;7.40;;;3.37;;
49978;SDS011;35869;50.990;6.962;2023-11-21T19:23:22;5.68;;;4.25;;
49978;SDS011;35869;50.990;6.962;2023-11-21T19:28:22;6.43;;;3.90;;
49978;SDS011;35869;50.990;6.962;2023-11-21T19:33:22;4.85;;;4.13;;
49978;SDS011;35869;50.990;6.962;2023-11-21T19:38:22;6.07;;;4.18;;
49978;SDS011;35869;50.990;6.962;2023-11-21T19:43:23;6.63;;;4.93;;
49978;SDS011;35869;50.990;6.962;2023-11-21T19:48:23;4.93;;;4.15;;
49978;SDS011;35869;50.990;6.962;2023-11-21T19:53:23;5.85;;;4.70;;
49978;SDS011;35869;50.990;6.962;2023-11-21T19:58:23;5.70;;;4.10;;
49978;SDS011;35869;50.990;6.962;2023-11-21T20:03:27;5.03;;;3.83;;
49978;SDS011;35869;50.990;6.962;2023-11-21T20:08:30;5.60;;;3.90;;
49978;SDS011;35869;50.990;6.962;2023-11-21T20:13:30;8.30;;;5.28;;
49978;SDS011;35869;50.990;6.962;2023-11-21T20:18:31;7.70;;;5.57;;
49978;SDS011;35869;50.990;6.962;2023-11-21T20:23:31;5.60;;;4.73;;
49978;SDS011;35869;50.990;6.962;2023-11-21T20:28:31;6.53;;;5.17;;
49978;SDS011;35869;50.990;6.962;2023-11-21T20:33:32;8.38;;;5.53;;
49978;SDS011;35869;50.990;6.962;2023-11-21T20:38:32;6.45;;;5.72;;
49978;SDS011;35869;50.990;6.962;2023-11-21T20:43:32;6.27;;;4.97;;
49978;SDS011;35869;50.990;6.962;2023-11-21T20:48:36;9.10;;;6.03;;
49978;SDS011;35869;50.990;6.962;2023-11-21T20:53:37;7.50;;;5.90;;
49978;SDS011;35869;50.990;6.962;2023-11-21T20:58:37;9.30;;;7.55;;
49978;SDS011;35869;50.990;6.962;2023-11-21T21:03:37;8.25;;;6.57;;
49978;SDS011;35869;50.990;6.962;2023-11-21T21:08:38;7.90;;;6.90;;
49978;SDS011;35869;50.990;6.962;2023-11-21T21:13:38;8.82;;;7.00;;
49978;SDS011;35869;50.990;6.962;2023-11-21T21:18:39;9.60;;;6.75;;
49978;SDS011;35869;50.990;6.962;2023-11-21T21:23:39;10.32;;;7.60;;
49978;SDS011;35869;50.990;6.962;2023-11-21T21:28:40;9.23;;;7.68;;
49978;SDS011;35869;50.990;6.962;2023-11-21T21:33:40;9.23;;;7.40;;
49978;SDS011;35869;50.990;6.962;2023-11-21T21:38:41;9.15;;;7.05;;
49978;SDS011;35869;50.990;6.962;2023-11-21T21:43:41;8.52;;;6.90;;
49978;SDS011;35869;50.990;6.962;2023-11-21T21:48:42;10.55;;;6.68;;
49978;SDS011;35869;50.990;6.962;2023-11-21T21:53:43;8.68;;;6.30;;
49978;SDS011;35869;50.990;6.962;2023-11-21T21:58:44;8.88;;;6.10;;
49978;SDS011;35869;50.990;6.962;2023-11-21T22:03:45;7.45;;;6.07;;
49978;SDS011;35869;50.990;6.962;2023-11-21T22:08:45;8.00;;;6.45;;
49978;SDS011;35869;50.990;6.962;2023-11-21T22:13:46;7.07;;;6.32;;
49978;SDS011;35869;50.990;6.962;2023-11-21T22:18:46;7.30;;;5.93;;
49978;SDS011;35869;50.990;6.962;2023-11-21T22:23:46;9.87;;;7.07;;
49978;SDS011;35869;50.990;6.962;2023-11-21T22:28:46;10.40;;;8.00;;
49978;SDS011;35869;50.990;6.962;2023-11-21T22:33:47;10.20;;;7.70;;
49978;SDS011;35869;50.990;6.962;2023-11-21T22:38:47;14.43;;;9.10;;
49978;SDS011;35869;50.990;6.962;2023-11-21T22:43:47;10.00;;;8.20;;
49978;SDS011;35869;50.990;6.962;2023-11-21T22:48:47;10.23;;;7.78;;
49978;SDS011;35869;50.990;6.962;2023-11-21T22:53:48;10.32;;;7.88;;
49978;SDS011;35869;50.990;6.962;2023-11-21T22:58:48;11.63;;;9.37;;
49978;SDS011;35869;50.990;6.962;2023-11-21T23:03:48;14.00;;;10.15;;
49978;SDS011;35869;50.990;6.962;2023-11-21T23:08:49;13.30;;;9.27;;
49978;SDS011;35869;50.990;6.962;2023-11-21T23:13:49;11.07;;;9.30;;
49978;SDS011;35869;50.990;6.962;2023-11-21T23:18:49;12.48;;;9.32;;
49978;SDS011;35869;50.990;6.962;2023-11-21T23:23:49;12.48;;;9.40;;
49978;SDS011;35869;50.990;6.962;2023-11-21T23:28:50;11.38;;;8.98;;
49978;SDS011;35869;50.990;6.962;2023-11-21T23:33:50;12.77;;;9.82;;
49978;SDS011;35869;50.990;6.962;2023-11-21T23:38:50;14.60;;;8.55;;
49978;SDS011;35869;50.990;6.962;2023-11-21T23:43:50;12.30;;;8.85;;
49978;SDS011;35869;50.990;6.962;2023-11-21T23:48:50;12.20;;;9.27;;
49978;SDS011;35869;50.990;6.962;2023-11-21T23:53:51;11.40;;;8.93;;
49978;SDS011;35869;50.990;6.962;2023-11-21T23:58:51;11.50;;;8.70;;
